Decoded Metar for LFPV (VILLACOUBLAY in FRANCE) (IATA:N/A) | Meteo·Mobile Aviation Weather
aviador You're here:

LFPV Decoded Metar

VILLACOUBLAY in FRANCE
Report Time2019-02-17 16:00:00
UTC Time2019-02-17 16:11:18
Flight Rules vfr VFR
Wind200° at 08 kt
W.Decomp.*RWY 27: 2.9 kt HW 7.5 kt LCW
W.Rank200° ranks 5
Current wind is above 200° avg. (7.0)
Visibility9999 m
Phenomena:N/A
Clouds:N/A
Expected CloudBase > 5,200 ft AGL from Temp-Dew spread
CeilingNone
Temp15°C (ISA +1)
Dew Point02°C (42% RH)
AAT10.5°C
QNH1019 hPa
Density Alt623 ft
Elevation587 ft
Report Wrong Elevation
Raw Report
METAR LFPV 171600Z AUTO 20008KT 170V230 CAVOK 15/02 Q1019 NOSIG=

Extra information for LFPV:More info

Metar Taf Metar & Taf Last 4 Metars F.Rules Stats Wind Profile Meteogram Temp Stats Airport Information Weather charts Add Link Nearby VenuesMetar ALERT Operation Metar Decoded Social comments